createdAt,value
2022-10-09T00:00:29.721Z,13.73
2022-10-09T00:02:56.992Z,14.95
2022-10-09T00:05:26.764Z,14.07
2022-10-09T00:07:54.648Z,14.85
2022-10-09T00:10:21.960Z,14.07
2022-10-09T00:12:49.673Z,14.35
2022-10-09T00:15:17.356Z,14.55
2022-10-09T00:17:44.762Z,14.60
2022-10-09T00:20:12.586Z,12.40
2022-10-09T00:22:40.211Z,14.13
2022-10-09T00:25:07.682Z,13.43
2022-10-09T00:27:34.991Z,13.63
2022-10-09T00:30:02.510Z,14.07
2022-10-09T00:32:29.792Z,11.63
2022-10-09T00:34:57.101Z,12.25
2022-10-09T00:37:24.431Z,12.73
2022-10-09T00:39:51.837Z,11.95
2022-10-09T00:42:19.220Z,11.40
2022-10-09T00:44:49.419Z,11.18
2022-10-09T00:47:23.145Z,11.88
2022-10-09T00:49:50.831Z,10.95
2022-10-09T00:52:18.224Z,9.75
2022-10-09T00:54:45.765Z,9.80
2022-10-09T00:57:13.245Z,9.02
2022-10-09T00:59:40.941Z,8.88
2022-10-09T01:02:08.545Z,9.05
2022-10-09T01:04:36.026Z,8.15
2022-10-09T01:07:19.729Z,7.25
2022-10-09T01:09:57.200Z,6.82
2022-10-09T01:12:30.393Z,6.82
2022-10-09T01:15:04.835Z,6.53
2022-10-09T01:17:52.450Z,5.95
2022-10-09T01:20:23.131Z,6.72
2022-10-09T01:22:50.964Z,6.95
2022-10-09T01:25:32.238Z,6.97
2022-10-09T01:28:00.327Z,5.65
2022-10-09T01:30:28.119Z,6.72
2022-10-09T01:32:56.373Z,6.20
2022-10-09T01:35:23.751Z,5.68
2022-10-09T01:37:52.320Z,5.47
2022-10-09T01:40:20.641Z,4.90
2022-10-09T01:42:48.306Z,5.65
2022-10-09T01:45:16.243Z,5.07
2022-10-09T01:47:43.935Z,5.13
2022-10-09T01:50:14.335Z,5.20
2022-10-09T01:52:54.115Z,4.60
2022-10-09T01:55:24.991Z,4.65
2022-10-09T01:58:10.464Z,4.95
2022-10-09T02:00:40.783Z,5.68
2022-10-09T02:03:10.418Z,6.20
2022-10-09T02:05:38.769Z,5.28
2022-10-09T02:08:06.189Z,5.53
2022-10-09T02:10:35.252Z,5.57
2022-10-09T02:13:02.865Z,5.70
2022-10-09T02:15:47.579Z,6.32
2022-10-09T02:18:16.957Z,6.05
2022-10-09T02:20:51.528Z,5.97
2022-10-09T02:23:20.203Z,5.85
2022-10-09T02:25:47.447Z,5.63
2022-10-09T02:28:14.758Z,5.70
2022-10-09T02:30:47.236Z,6.38
2022-10-09T02:33:14.463Z,5.78
2022-10-09T02:35:41.767Z,6.22
2022-10-09T02:38:08.980Z,6.15
2022-10-09T02:40:36.153Z,7.80
2022-10-09T02:43:03.368Z,6.95
2022-10-09T02:45:30.545Z,6.53
2022-10-09T02:47:57.819Z,7.80
2022-10-09T02:50:25.023Z,8.27
2022-10-09T02:52:52.208Z,6.80
2022-10-09T02:55:19.397Z,5.97
2022-10-09T02:57:46.613Z,6.68
2022-10-09T03:00:14.115Z,6.82
2022-10-09T03:02:41.343Z,10.45
2022-10-09T03:05:08.823Z,10.02
2022-10-09T03:07:36.080Z,7.15
2022-10-09T03:10:03.317Z,5.97
2022-10-09T03:12:30.925Z,8.68
2022-10-09T03:14:58.135Z,9.63
2022-10-09T03:17:25.558Z,11.82
2022-10-09T03:19:53.641Z,7.78
2022-10-09T03:22:20.854Z,5.82
2022-10-09T03:24:48.069Z,6.53
2022-10-09T03:27:15.321Z,5.68
2022-10-09T03:29:42.466Z,8.90
2022-10-09T03:32:09.696Z,8.07
2022-10-09T03:34:36.882Z,5.15
2022-10-09T03:37:04.236Z,7.85
2022-10-09T03:39:32.186Z,12.93
2022-10-09T03:41:59.432Z,5.82
2022-10-09T03:44:26.584Z,7.13
2022-10-09T03:46:53.825Z,9.43
2022-10-09T03:49:21.086Z,8.73
2022-10-09T03:51:49.596Z,8.07
2022-10-09T03:54:16.783Z,11.45
2022-10-09T03:56:44.038Z,8.90
2022-10-09T03:59:11.621Z,6.53
2022-10-09T04:01:38.875Z,5.82
2022-10-09T04:04:06.117Z,5.75
2022-10-09T04:06:33.341Z,5.72
2022-10-09T04:09:01.261Z,5.80
2022-10-09T04:11:28.484Z,6.60
2022-10-09T04:13:55.651Z,6.57
2022-10-09T04:16:23.037Z,10.73
2022-10-09T04:18:50.331Z,8.15
2022-10-09T04:21:17.715Z,9.02
2022-10-09T04:23:45.278Z,9.68
2022-10-09T04:26:13.209Z,10.98
2022-10-09T04:28:40.516Z,11.82
2022-10-09T04:31:07.956Z,12.82
2022-10-09T04:33:35.259Z,10.27
2022-10-09T04:36:02.635Z,8.13
2022-10-09T04:38:31.755Z,6.00
2022-10-09T04:41:06.330Z,6.75
2022-10-09T04:43:34.184Z,7.85
2022-10-09T04:46:08.545Z,7.85
2022-10-09T04:48:43.403Z,8.90
2022-10-09T04:51:11.154Z,5.57
2022-10-09T04:53:39.024Z,5.78
2022-10-09T04:56:08.220Z,6.88
2022-10-09T04:58:36.482Z,5.55
2022-10-09T05:01:11.130Z,6.60
2022-10-09T05:03:38.742Z,5.95
2022-10-09T05:06:07.332Z,6.28
2022-10-09T05:08:35.005Z,5.40
2022-10-09T05:11:03.172Z,5.40
2022-10-09T05:13:31.168Z,5.20
2022-10-09T05:16:01.961Z,4.97
2022-10-09T05:18:29.239Z,5.30
2022-10-09T05:20:56.496Z,7.72
2022-10-09T05:23:23.697Z,5.43
2022-10-09T05:25:58.243Z,4.72
2022-10-09T05:28:25.749Z,4.07
2022-10-09T05:30:53.033Z,5.30
2022-10-09T05:33:20.447Z,5.50
2022-10-09T05:35:51.641Z,5.00
2022-10-09T05:38:19.254Z,4.70
2022-10-09T05:40:52.529Z,4.93
2022-10-09T05:43:19.908Z,4.63
2022-10-09T05:45:47.141Z,4.10
2022-10-09T05:48:14.489Z,4.50
2022-10-09T05:50:42.250Z,4.15
2022-10-09T05:53:09.598Z,4.40
2022-10-09T05:55:36.766Z,3.70
2022-10-09T05:58:04.392Z,4.18
2022-10-09T06:00:32.976Z,3.97
2022-10-09T06:03:00.222Z,4.20
2022-10-09T06:05:27.425Z,4.00
2022-10-09T06:07:54.670Z,4.07
2022-10-09T06:10:21.872Z,3.58
2022-10-09T06:12:49.311Z,3.85
2022-10-09T06:15:16.918Z,3.83
2022-10-09T06:17:44.143Z,3.80
2022-10-09T06:20:11.516Z,3.47
2022-10-09T06:22:38.755Z,3.88
2022-10-09T06:25:06.247Z,3.30
2022-10-09T06:27:33.510Z,3.60
2022-10-09T06:30:00.674Z,3.40
2022-10-09T06:32:27.906Z,3.22
2022-10-09T06:34:55.078Z,3.40
2022-10-09T06:37:22.262Z,3.08
2022-10-09T06:39:49.413Z,3.17
2022-10-09T06:42:17.403Z,3.30
2022-10-09T06:44:51.590Z,3.00
2022-10-09T06:47:18.774Z,3.70
2022-10-09T06:49:45.943Z,4.15
2022-10-09T06:52:13.155Z,3.90
2022-10-09T06:54:40.374Z,3.75
2022-10-09T06:57:07.627Z,4.20
2022-10-09T06:59:34.803Z,4.03
2022-10-09T07:02:02.045Z,4.55
2022-10-09T07:04:29.304Z,3.60
2022-10-09T07:06:56.504Z,3.85
2022-10-09T07:09:23.726Z,3.15
2022-10-09T07:11:51.009Z,3.22
2022-10-09T07:14:18.414Z,3.00
2022-10-09T07:16:47.054Z,2.60
2022-10-09T07:19:15.022Z,3.47
2022-10-09T07:21:43.537Z,3.08
2022-10-09T07:24:11.357Z,3.15
2022-10-09T07:26:40.400Z,2.83
2022-10-09T07:29:08.657Z,2.78
2022-10-09T07:31:36.115Z,2.85
2022-10-09T07:34:03.447Z,2.90
2022-10-09T07:36:30.727Z,2.80
2022-10-09T07:38:58.564Z,2.65
2022-10-09T07:41:27.130Z,2.80
2022-10-09T07:43:54.449Z,2.80
2022-10-09T07:46:24.455Z,2.35
2022-10-09T07:48:52.191Z,2.30
2022-10-09T07:51:21.074Z,2.53
2022-10-09T07:53:48.766Z,2.90
2022-10-09T07:56:16.913Z,2.80
2022-10-09T07:58:44.308Z,2.70
2022-10-09T08:01:15.021Z,2.22
2022-10-09T08:03:45.230Z,2.53
2022-10-09T08:06:12.716Z,2.00
2022-10-09T08:08:40.029Z,2.45
2022-10-09T08:11:11.182Z,2.40
2022-10-09T08:13:38.840Z,2.28
2022-10-09T08:16:06.891Z,2.40
2022-10-09T08:18:35.653Z,2.20
2022-10-09T08:21:04.453Z,1.83
2022-10-09T08:23:31.753Z,1.85
2022-10-09T08:25:59.225Z,2.50
2022-10-09T08:28:26.556Z,2.20
2022-10-09T08:30:53.833Z,1.80
2022-10-09T08:33:23.341Z,2.05
2022-10-09T08:35:51.152Z,2.08
2022-10-09T08:38:44.968Z,2.00
2022-10-09T08:41:17.264Z,1.98
2022-10-09T08:43:46.941Z,1.70
2022-10-09T08:46:26.142Z,1.70
2022-10-09T08:48:54.568Z,1.80
2022-10-09T08:51:27.279Z,1.40
2022-10-09T08:54:01.844Z,2.75
2022-10-09T08:56:29.763Z,1.45
2022-10-09T08:58:57.030Z,1.33
2022-10-09T09:01:30.676Z,0.90
2022-10-09T09:04:00.667Z,0.93
2022-10-09T09:06:36.691Z,1.08
2022-10-09T09:09:16.643Z,1.00
2022-10-09T09:12:02.635Z,1.40
2022-10-09T09:14:35.829Z,1.10
2022-10-09T09:17:09.597Z,1.20
2022-10-09T09:19:36.788Z,1.10
2022-10-09T09:22:04.767Z,1.00
2022-10-09T09:24:38.217Z,0.90
2022-10-09T09:27:11.591Z,1.23
2022-10-09T09:29:47.661Z,1.10
2022-10-09T09:32:17.342Z,0.98
2022-10-09T09:34:44.739Z,1.08
2022-10-09T09:37:12.529Z,1.15
2022-10-09T09:40:34.902Z,1.25
2022-10-09T09:42:28.189Z,1.40
2022-10-09T09:45:00.390Z,1.40
2022-10-09T09:47:30.845Z,1.70
2022-10-09T09:49:59.422Z,1.85
2022-10-09T09:52:28.320Z,1.67
2022-10-09T09:54:56.928Z,1.15
2022-10-09T09:57:38.329Z,1.23
2022-10-09T10:00:10.599Z,2.70
2022-10-09T10:02:37.824Z,1.50
2022-10-09T10:05:17.267Z,1.13
2022-10-09T10:07:44.654Z,1.73
2022-10-09T10:10:19.894Z,1.67
2022-10-09T10:13:01.414Z,1.30
2022-10-09T10:15:30.188Z,2.80
2022-10-09T10:18:07.909Z,1.60
2022-10-09T10:20:43.825Z,5.03
2022-10-09T10:23:25.278Z,3.95
2022-10-09T10:25:57.600Z,1.65
2022-10-09T10:28:36.202Z,6.05
2022-10-09T10:31:06.482Z,1.60
2022-10-09T10:33:34.319Z,2.50
2022-10-09T10:36:01.552Z,4.78
2022-10-09T10:38:33.208Z,1.63
2022-10-09T10:41:20.724Z,2.22
2022-10-09T10:43:47.922Z,6.43
2022-10-09T10:46:21.549Z,1.60
2022-10-09T10:48:49.930Z,1.42
2022-10-09T10:51:36.988Z,4.15
2022-10-09T10:54:16.644Z,2.22
2022-10-09T10:56:47.156Z,3.63
2022-10-09T10:59:23.004Z,9.55
2022-10-09T11:01:56.111Z,4.63
2022-10-09T11:04:26.518Z,3.00
2022-10-09T11:07:16.983Z,3.13
2022-10-09T11:10:02.197Z,8.77
2022-10-09T11:12:53.786Z,7.22
2022-10-09T11:15:21.211Z,4.35
2022-10-09T11:17:56.450Z,7.80
2022-10-09T11:20:42.627Z,2.72
2022-10-09T11:23:17.653Z,3.70
2022-10-09T11:25:58.328Z,1.85
2022-10-09T11:28:28.927Z,2.55
2022-10-09T11:31:01.913Z,1.65
2022-10-09T11:33:33.499Z,1.33
2022-10-09T11:36:12.684Z,2.03
2022-10-09T11:38:43.053Z,1.10
2022-10-09T11:41:11.124Z,1.10
2022-10-09T11:43:47.230Z,1.00
2022-10-09T11:46:37.564Z,1.13
2022-10-09T11:49:08.493Z,0.75
2022-10-09T11:51:42.109Z,1.10
2022-10-09T11:54:20.428Z,1.30
2022-10-09T11:57:02.161Z,1.00
2022-10-09T11:59:33.828Z,1.15
2022-10-09T12:02:13.395Z,1.10
2022-10-09T12:04:54.418Z,0.88
2022-10-09T12:07:28.723Z,1.20
2022-10-09T12:09:58.348Z,1.52
2022-10-09T12:12:25.895Z,1.02
2022-10-09T12:14:53.755Z,1.60
2022-10-09T12:17:23.983Z,1.30
2022-10-09T12:19:55.345Z,0.82
2022-10-09T12:22:27.931Z,1.02
2022-10-09T12:24:56.669Z,0.98
2022-10-09T12:27:38.691Z,1.30
2022-10-09T12:30:14.906Z,1.50
2022-10-09T12:32:51.492Z,1.52
2022-10-09T12:35:21.977Z,1.25
2022-10-09T12:37:49.358Z,0.98
2022-10-09T12:40:46.055Z,1.00
2022-10-09T12:43:16.487Z,1.02
2022-10-09T12:45:44.759Z,1.08
2022-10-09T12:48:13.346Z,1.00
2022-10-09T12:50:40.720Z,0.82
2022-10-09T12:53:13.614Z,1.10
2022-10-09T12:55:51.831Z,1.00
2022-10-09T12:58:20.146Z,1.10
2022-10-09T13:00:48.346Z,1.00
2022-10-09T13:03:27.980Z,0.85
2022-10-09T13:05:57.495Z,0.88
2022-10-09T13:08:26.440Z,1.00
2022-10-09T13:10:53.921Z,0.80
2022-10-09T13:13:23.584Z,0.90
2022-10-09T13:16:06.270Z,1.10
2022-10-09T13:18:33.757Z,0.73
2022-10-09T13:21:02.741Z,0.80
2022-10-09T13:23:32.960Z,1.10
2022-10-09T13:26:03.485Z,1.10
2022-10-09T13:28:31.197Z,1.30
2022-10-09T13:31:07.753Z,1.10
2022-10-09T13:33:35.467Z,0.98
2022-10-09T13:39:43.471Z,0.80
2022-10-09T13:42:12.641Z,0.80
2022-10-09T13:44:39.837Z,1.20
2022-10-09T13:47:07.160Z,1.00
2022-10-09T13:49:34.369Z,1.10
2022-10-09T13:52:01.621Z,1.17
2022-10-09T13:54:29.184Z,1.10
2022-10-09T13:56:56.453Z,1.10
2022-10-09T13:59:24.658Z,0.85
2022-10-09T14:01:52.430Z,1.10
2022-10-09T14:04:19.987Z,0.98
2022-10-09T14:06:47.249Z,1.13
2022-10-09T14:09:14.721Z,1.02
2022-10-09T14:11:41.998Z,1.00
2022-10-09T14:14:09.261Z,0.93
2022-10-09T14:16:36.579Z,1.13
2022-10-09T14:19:04.628Z,1.40
2022-10-09T14:21:32.250Z,1.10
2022-10-09T14:24:00.803Z,1.10
2022-10-09T14:26:28.925Z,1.70
2022-10-09T14:28:56.264Z,1.20
2022-10-09T14:31:23.643Z,1.05
2022-10-09T14:33:50.870Z,1.05
2022-10-09T14:36:20.047Z,1.20
2022-10-09T14:38:47.888Z,1.00
2022-10-09T14:41:17.849Z,1.05
2022-10-09T14:43:45.703Z,1.23
2022-10-09T14:46:16.693Z,1.30
2022-10-09T14:48:45.480Z,1.70
2022-10-09T14:51:14.057Z,1.17
2022-10-09T14:53:41.501Z,1.20
2022-10-09T14:56:11.407Z,1.10
2022-10-09T14:58:39.321Z,1.10
2022-10-09T15:01:07.368Z,1.10
2022-10-09T15:03:35.660Z,0.90
2022-10-09T15:06:04.442Z,1.15
2022-10-09T15:08:32.777Z,1.15
2022-10-09T15:11:00.219Z,1.00
2022-10-09T15:13:27.542Z,1.25
2022-10-09T15:16:01.083Z,1.20
2022-10-09T15:18:28.845Z,1.10
2022-10-09T15:20:56.236Z,1.10
2022-10-09T15:23:24.343Z,1.25
2022-10-09T15:25:52.132Z,1.10
2022-10-09T15:28:19.848Z,1.20
2022-10-09T15:30:47.761Z,1.00
2022-10-09T15:33:15.124Z,1.20
2022-10-09T15:35:42.297Z,1.30
2022-10-09T15:38:13.762Z,0.93
2022-10-09T15:40:45.170Z,0.90
2022-10-09T15:43:13.271Z,1.08
2022-10-09T15:45:40.575Z,1.10
2022-10-09T15:48:08.036Z,1.60
2022-10-09T15:50:35.923Z,1.38
2022-10-09T15:53:07.472Z,2.45
2022-10-09T15:55:37.444Z,2.03
2022-10-09T15:58:04.883Z,2.47
2022-10-09T16:00:35.555Z,1.88
2022-10-09T16:03:02.808Z,2.20
2022-10-09T16:05:30.268Z,1.95
2022-10-09T16:07:57.596Z,2.05
2022-10-09T16:10:24.835Z,3.28
2022-10-09T16:12:52.434Z,3.35
2022-10-09T16:15:20.047Z,3.45
2022-10-09T16:17:48.749Z,3.55
2022-10-09T16:20:16.000Z,3.05
2022-10-09T16:22:43.169Z,4.10
2022-10-09T16:25:10.788Z,2.55
2022-10-09T16:27:38.192Z,3.80
2022-10-09T16:30:05.662Z,4.07
2022-10-09T16:32:32.917Z,4.80
2022-10-09T16:35:00.195Z,5.38
2022-10-09T16:37:27.421Z,6.70
2022-10-09T16:39:54.655Z,5.47
2022-10-09T16:42:21.846Z,4.70
2022-10-09T16:44:51.389Z,3.83
2022-10-09T16:47:18.696Z,3.38
2022-10-09T16:49:46.264Z,3.13
2022-10-09T16:52:13.455Z,2.47
2022-10-09T16:54:40.704Z,2.88
2022-10-09T16:57:08.190Z,2.47
2022-10-09T16:59:35.395Z,2.33
2022-10-09T17:02:03.550Z,2.15
2022-10-09T17:04:31.080Z,2.30
2022-10-09T17:06:58.404Z,2.70
2022-10-09T17:09:25.681Z,3.30
2022-10-09T17:11:52.925Z,3.13
2022-10-09T17:14:20.118Z,3.50
2022-10-09T17:16:47.442Z,2.80
2022-10-09T17:19:15.780Z,3.20
2022-10-09T17:21:43.388Z,3.28
2022-10-09T17:24:13.567Z,3.67
2022-10-09T17:26:41.084Z,4.70
2022-10-09T17:29:08.605Z,6.35
2022-10-09T17:31:36.022Z,7.20
2022-10-09T17:34:04.355Z,9.57
2022-10-09T17:36:33.656Z,9.70
2022-10-09T17:39:00.985Z,9.57
2022-10-09T17:41:29.054Z,7.72
2022-10-09T17:43:56.731Z,6.30
2022-10-09T17:46:24.962Z,5.93
2022-10-09T17:48:56.814Z,4.25
2022-10-09T17:53:53.195Z,4.35
2022-10-09T17:56:20.832Z,3.63
2022-10-09T17:58:49.400Z,3.35
2022-10-09T18:01:17.219Z,2.67
2022-10-09T18:03:44.958Z,2.05
2022-10-09T18:06:14.730Z,2.00
2022-10-09T18:08:42.151Z,2.08
2022-10-09T18:11:10.777Z,1.90
2022-10-09T18:13:39.280Z,1.65
2022-10-09T18:16:07.547Z,1.80
2022-10-09T18:18:35.112Z,1.70
2022-10-09T18:21:06.596Z,1.35
2022-10-09T18:23:34.209Z,1.58
2022-10-09T18:26:02.265Z,1.77
2022-10-09T18:28:29.553Z,1.98
2022-10-09T18:30:58.520Z,2.88
2022-10-09T18:33:25.729Z,3.30
2022-10-09T18:35:52.996Z,5.57
2022-10-09T18:38:20.255Z,6.80
2022-10-09T18:40:47.548Z,6.72
2022-10-09T18:43:15.208Z,4.00
2022-10-09T18:45:46.169Z,3.40
2022-10-09T18:48:13.881Z,2.60
2022-10-09T18:50:41.264Z,2.85
2022-10-09T18:53:08.923Z,2.50
2022-10-09T18:55:36.261Z,2.58
2022-10-09T18:58:03.848Z,4.40
2022-10-09T19:00:31.267Z,6.28
2022-10-09T19:02:58.797Z,5.53
2022-10-09T19:05:26.418Z,3.42
2022-10-09T19:07:55.480Z,2.97
2022-10-09T19:10:22.802Z,2.88
2022-10-09T19:12:52.328Z,2.60
2022-10-09T19:15:19.999Z,3.20
2022-10-09T19:17:47.461Z,3.10
2022-10-09T19:20:14.933Z,4.97
2022-10-09T19:22:42.112Z,4.88
2022-10-09T19:25:09.758Z,4.30
2022-10-09T19:27:37.061Z,4.45
2022-10-09T19:30:05.441Z,4.15
2022-10-09T19:32:32.672Z,3.33
2022-10-09T19:35:00.056Z,3.60
2022-10-09T19:37:29.685Z,3.10
2022-10-09T19:39:57.751Z,2.88
2022-10-09T19:42:25.715Z,2.78
2022-10-09T19:44:53.278Z,3.50
2022-10-09T19:47:21.750Z,2.95
2022-10-09T19:49:50.054Z,4.10
2022-10-09T19:52:17.291Z,4.40
2022-10-09T19:54:44.570Z,4.03
2022-10-09T19:57:11.764Z,4.47
2022-10-09T19:59:38.970Z,3.92
2022-10-09T20:02:07.787Z,4.03
2022-10-09T20:04:35.042Z,4.88
2022-10-09T20:07:02.276Z,4.68
2022-10-09T20:09:29.529Z,5.25
2022-10-09T20:11:56.819Z,5.05
2022-10-09T20:14:25.151Z,3.85
2022-10-09T20:16:52.326Z,4.10
2022-10-09T20:19:19.648Z,4.00
2022-10-09T20:21:46.878Z,3.22
2022-10-09T20:24:14.178Z,2.47
2022-10-09T20:26:43.309Z,2.53
2022-10-09T20:29:10.790Z,2.30
2022-10-09T20:31:38.131Z,3.17
2022-10-09T20:34:05.879Z,2.95
2022-10-09T20:36:37.660Z,2.40
2022-10-09T20:39:06.226Z,2.50
2022-10-09T20:41:34.084Z,3.05
2022-10-09T20:44:02.317Z,3.33
2022-10-09T20:46:30.499Z,2.83
2022-10-09T20:48:57.930Z,2.50
2022-10-09T20:51:26.143Z,3.00
2022-10-09T20:53:55.840Z,3.22
2022-10-09T20:56:24.315Z,3.22
2022-10-09T20:58:52.006Z,3.33
2022-10-09T21:01:19.352Z,3.00
2022-10-09T21:03:46.795Z,2.45
2022-10-09T21:06:15.508Z,2.22
2022-10-09T21:08:42.746Z,1.80
2022-10-09T21:11:12.141Z,2.00
2022-10-09T21:13:40.541Z,1.55
2022-10-09T21:16:09.249Z,1.90
2022-10-09T21:18:36.963Z,1.80
2022-10-09T21:21:05.814Z,1.80
2022-10-09T21:23:33.152Z,1.60
2022-10-09T21:26:00.465Z,1.90
2022-10-09T21:28:28.042Z,1.50
2022-10-09T21:30:55.488Z,1.85
2022-10-09T21:33:23.156Z,1.95
2022-10-09T21:35:51.389Z,1.90
2022-10-09T21:38:19.855Z,1.85
2022-10-09T21:40:49.284Z,1.80
2022-10-09T21:43:18.229Z,2.00
2022-10-09T21:45:49.278Z,2.33
2022-10-09T21:48:19.125Z,2.60
2022-10-09T21:50:46.384Z,2.78
2022-10-09T21:53:13.951Z,2.60
2022-10-09T21:55:41.178Z,1.90
2022-10-09T21:58:08.468Z,1.60
2022-10-09T22:00:35.722Z,1.80
2022-10-09T22:03:02.908Z,2.00
2022-10-09T22:05:30.133Z,2.22
2022-10-09T22:07:57.333Z,2.10
2022-10-09T22:10:24.586Z,2.15
2022-10-09T22:12:52.306Z,2.15
2022-10-09T22:15:19.862Z,2.05
2022-10-09T22:17:47.051Z,2.15
2022-10-09T22:20:14.461Z,2.00
2022-10-09T22:22:41.665Z,2.10
2022-10-09T22:25:08.996Z,1.83
2022-10-09T22:27:36.267Z,1.73
2022-10-09T22:30:03.630Z,1.70
2022-10-09T22:32:31.022Z,2.03
2022-10-09T22:34:58.281Z,2.00
2022-10-09T22:37:25.474Z,1.70
2022-10-09T22:39:52.703Z,1.70
2022-10-09T22:42:19.918Z,1.58
2022-10-09T22:44:47.505Z,1.60
2022-10-09T22:47:14.692Z,1.95
2022-10-09T22:49:41.935Z,1.50
2022-10-09T22:52:09.172Z,1.70
2022-10-09T22:54:36.393Z,1.90
2022-10-09T22:57:03.559Z,1.58
2022-10-09T22:59:30.887Z,1.50
2022-10-09T23:01:58.820Z,1.70
2022-10-09T23:04:26.174Z,1.60
2022-10-09T23:06:55.204Z,1.80
2022-10-09T23:09:23.423Z,2.05
2022-10-09T23:11:50.774Z,1.70
2022-10-09T23:14:18.124Z,1.95
2022-10-09T23:16:45.323Z,1.52
2022-10-09T23:19:12.874Z,1.65
2022-10-09T23:21:41.342Z,2.08
2022-10-09T23:24:09.511Z,1.60
2022-10-09T23:26:37.359Z,1.42
2022-10-09T23:29:06.223Z,1.83
2022-10-09T23:31:33.660Z,1.65
2022-10-09T23:34:00.990Z,1.90
2022-10-09T23:36:29.452Z,2.10
2022-10-09T23:38:57.296Z,2.10
2022-10-09T23:41:25.640Z,1.90
2022-10-09T23:43:53.048Z,1.73
2022-10-09T23:46:21.409Z,1.67
2022-10-09T23:48:49.781Z,1.73
2022-10-09T23:51:17.867Z,1.70
2022-10-09T23:53:45.146Z,1.55
2022-10-09T23:56:20.733Z,2.00
2022-10-09T23:58:48.291Z,1.85
